createdAt,value
2019-01-29T00:01:04.836Z,50.37
2019-01-29T00:06:09.879Z,48.13
2019-01-29T00:11:14.860Z,41.83
2019-01-29T00:16:19.839Z,49.07
2019-01-29T00:21:24.854Z,40.90
2019-01-29T00:26:29.839Z,33.27
2019-01-29T00:31:34.813Z,29.90
2019-01-29T00:36:39.827Z,27.77
2019-01-29T00:41:44.843Z,25.93
2019-01-29T00:46:49.830Z,25.30
2019-01-29T00:51:54.808Z,22.67
2019-01-29T00:56:59.799Z,17.37
2019-01-29T01:02:05.561Z,22.57
2019-01-29T01:07:10.542Z,18.77
2019-01-29T01:12:16.027Z,19.37
2019-01-29T01:17:21.027Z,15.33
2019-01-29T01:22:26.030Z,15.63
2019-01-29T01:27:31.033Z,16.10
2019-01-29T01:32:36.007Z,10.83
2019-01-29T01:37:41.028Z,12.13
2019-01-29T01:42:46.318Z,10.20
2019-01-29T01:47:51.308Z,11.47
2019-01-29T01:52:59.452Z,12.53
2019-01-29T01:58:03.052Z,14.70
2019-01-29T02:03:08.027Z,15.60
2019-01-29T02:08:13.036Z,14.17
2019-01-29T02:13:18.006Z,14.03
2019-01-29T02:18:23.060Z,19.87
2019-01-29T02:23:28.123Z,18.33
2019-01-29T02:28:33.101Z,19.03
2019-01-29T02:33:38.077Z,22.73
2019-01-29T02:38:43.069Z,25.83
2019-01-29T02:43:48.076Z,25.73
2019-01-29T02:48:53.116Z,20.63
2019-01-29T02:53:58.146Z,33.03
2019-01-29T02:59:03.120Z,34.30
2019-01-29T03:04:08.107Z,39.43
2019-01-29T03:09:13.085Z,47.63
2019-01-29T03:14:18.071Z,47.07
2019-01-29T03:19:23.052Z,41.53
2019-01-29T03:24:28.116Z,46.57
2019-01-29T03:29:33.112Z,48.53
2019-01-29T03:34:38.100Z,54.53
2019-01-29T03:39:45.858Z,71.93
2019-01-29T03:44:50.844Z,81.20
2019-01-29T03:49:55.891Z,82.90
2019-01-29T03:55:01.093Z,77.63
2019-01-29T04:00:10.905Z,67.93
2019-01-29T04:05:15.905Z,64.27
2019-01-29T04:10:21.488Z,30.10
2019-01-29T04:15:26.459Z,34.87
2019-01-29T04:20:31.456Z,27.60
2019-01-29T04:25:36.433Z,21.60
2019-01-29T04:30:41.423Z,25.73
2019-01-29T04:35:46.395Z,26.03
2019-01-29T04:40:51.727Z,25.97
2019-01-29T04:45:56.708Z,26.20
2019-01-29T04:51:02.151Z,25.30
2019-01-29T04:56:07.263Z,18.70
2019-01-29T05:01:14.194Z,28.57
2019-01-29T05:06:19.180Z,29.63
2019-01-29T05:11:24.218Z,30.13
2019-01-29T05:16:29.215Z,25.13
2019-01-29T05:21:34.199Z,21.80
2019-01-29T05:26:39.183Z,17.97
2019-01-29T05:31:44.178Z,19.83
2019-01-29T05:36:49.167Z,21.67
2019-01-29T05:41:54.157Z,22.80
2019-01-29T05:46:59.166Z,23.43
2019-01-29T05:52:04.658Z,18.70
2019-01-29T05:57:09.626Z,23.87
2019-01-29T06:02:14.616Z,24.97
2019-01-29T06:07:19.647Z,21.47
2019-01-29T06:12:24.929Z,20.27
2019-01-29T06:17:29.949Z,16.80
2019-01-29T06:22:34.929Z,20.27
2019-01-29T06:27:39.919Z,22.27
2019-01-29T06:32:45.179Z,26.83
2019-01-29T06:37:50.153Z,27.17
2019-01-29T06:42:55.163Z,30.40
2019-01-29T06:48:00.139Z,27.80
2019-01-29T06:53:05.310Z,25.03
2019-01-29T06:58:10.313Z,19.93
2019-01-29T07:03:15.778Z,11.63
2019-01-29T07:08:20.846Z,11.40
2019-01-29T07:13:25.793Z,9.17
2019-01-29T07:18:52.533Z,11.30
2019-01-29T07:23:57.542Z,11.97
2019-01-29T07:29:02.691Z,13.50
2019-01-29T07:34:09.158Z,13.33
2019-01-29T07:39:14.439Z,15.20
2019-01-29T07:44:21.501Z,16.13
2019-01-29T07:49:26.875Z,18.27
2019-01-29T07:54:33.383Z,24.93
2019-01-29T07:59:38.475Z,32.77
2019-01-29T08:04:43.460Z,37.40
2019-01-29T08:09:48.459Z,37.80
2019-01-29T08:14:53.447Z,47.90
2019-01-29T08:19:58.458Z,52.73
2019-01-29T08:25:03.436Z,54.57
2019-01-29T08:30:09.263Z,59.63
2019-01-29T08:35:14.671Z,58.80
2019-01-29T08:40:19.673Z,53.87
2019-01-29T08:45:24.795Z,51.00
2019-01-29T08:50:29.899Z,60.17
2019-01-29T08:55:34.900Z,69.13
2019-01-29T09:00:40.155Z,79.57
2019-01-29T09:05:45.132Z,88.67
2019-01-29T09:10:50.267Z,85.13
2019-01-29T10:15:10.069Z,87.50
2019-01-29T10:20:15.296Z,66.37
2019-01-29T10:25:20.827Z,69.47
2019-01-29T10:30:26.492Z,134.50
2019-01-29T10:35:31.872Z,71.23
2019-01-29T10:40:37.233Z,69.57
2019-01-29T10:45:42.391Z,78.10
2019-01-29T10:50:47.452Z,82.17
2019-01-29T10:55:52.489Z,63.47
2019-01-29T11:00:57.514Z,76.07
2019-01-29T11:06:02.939Z,51.80
2019-01-29T11:11:08.181Z,54.27
2019-01-29T11:16:13.226Z,55.37
2019-01-29T11:21:18.248Z,72.83
2019-01-29T11:26:23.275Z,73.80
2019-01-29T11:31:29.565Z,63.37
2019-01-29T11:36:34.629Z,53.27
2019-01-29T11:41:39.661Z,50.27
2019-01-29T11:46:44.681Z,71.27
2019-01-29T11:51:49.749Z,129.40
2019-01-29T11:56:54.776Z,72.80
2019-01-29T12:02:02.143Z,69.37
2019-01-29T12:07:07.180Z,67.93
2019-01-29T12:12:12.193Z,53.43
2019-01-29T12:17:17.225Z,36.00
2019-01-29T12:22:22.284Z,23.30
2019-01-29T12:27:27.403Z,35.93
2019-01-29T12:32:32.431Z,36.43
2019-01-29T12:37:37.481Z,32.00
2019-01-29T12:42:42.509Z,36.27
2019-01-29T12:47:48.311Z,44.90
2019-01-29T12:53:03.680Z,43.50
2019-01-29T12:58:08.644Z,45.47
2019-01-29T13:03:13.682Z,47.67
2019-01-29T13:08:19.003Z,48.60
2019-01-29T13:13:24.324Z,56.37
2019-01-29T13:18:29.349Z,63.20
2019-01-29T13:23:34.450Z,76.80
2019-01-29T13:28:39.460Z,76.97
2019-01-29T13:33:46.004Z,48.27
2019-01-29T13:38:51.008Z,38.37
2019-01-29T13:43:56.198Z,42.07
2019-01-29T13:49:01.222Z,42.53
2019-01-29T13:54:06.253Z,40.93
2019-01-29T14:04:22.233Z,29.30
2019-01-29T14:09:27.274Z,32.60
2019-01-29T14:14:33.597Z,25.17
2019-01-29T14:19:38.622Z,30.57
2019-01-29T14:24:43.972Z,30.13
2019-01-29T14:29:48.992Z,29.27
2019-01-29T14:34:54.062Z,32.20
2019-01-29T14:40:19.176Z,30.83
2019-01-29T14:45:26.561Z,33.10
2019-01-29T14:50:31.732Z,35.20
2019-01-29T14:55:37.069Z,34.77
2019-01-29T15:00:47.253Z,39.93
2019-01-29T15:05:52.346Z,37.17
2019-01-29T15:10:57.387Z,36.63
2019-01-29T15:16:31.133Z,40.17
2019-01-29T15:21:37.983Z,36.70
2019-01-29T15:26:43.154Z,32.40
2019-01-29T15:31:48.172Z,32.57
2019-01-29T15:36:53.214Z,28.73
2019-01-29T15:41:58.242Z,25.40
2019-01-29T15:47:03.268Z,24.30
2019-01-29T15:52:08.346Z,22.60
2019-01-29T15:57:14.310Z,19.80
2019-01-29T16:02:19.940Z,23.03
2019-01-29T16:07:24.967Z,23.87
2019-01-29T16:12:29.988Z,21.57
2019-01-29T16:17:35.010Z,22.57
2019-01-29T16:22:40.028Z,22.80
2019-01-29T16:27:45.098Z,20.90
2019-01-29T16:32:50.117Z,21.50
2019-01-29T16:37:55.129Z,22.93
2019-01-29T16:43:00.172Z,26.30
2019-01-29T16:48:06.151Z,27.23
2019-01-29T16:53:11.176Z,32.53
2019-01-29T16:58:16.290Z,51.43
2019-01-29T17:03:21.241Z,33.70
2019-01-29T17:08:26.284Z,34.50
2019-01-29T17:13:31.632Z,33.43
2019-01-29T17:18:36.657Z,29.20
2019-01-29T17:23:41.684Z,28.70
2019-01-29T17:28:46.707Z,29.47
2019-01-29T17:33:51.747Z,29.13
2019-01-29T17:38:56.980Z,26.37
2019-01-29T17:44:02.010Z,25.17
2019-01-29T17:49:07.089Z,24.27
2019-01-29T17:54:12.110Z,24.10
2019-01-29T17:59:17.132Z,24.20
2019-01-29T18:04:22.157Z,23.50
2019-01-29T18:09:27.182Z,22.10
2019-01-29T18:14:32.208Z,22.23
2019-01-29T18:19:37.250Z,21.53
2019-01-29T18:24:42.324Z,23.67
2019-01-29T18:29:47.360Z,22.40
2019-01-29T18:34:52.388Z,23.33
2019-01-29T18:39:57.425Z,24.93
2019-01-29T18:45:02.456Z,25.07
2019-01-29T18:50:09.261Z,28.87
2019-01-29T18:55:14.609Z,27.63
2019-01-29T19:00:21.872Z,29.10
2019-01-29T19:05:26.925Z,30.20
2019-01-29T19:10:31.973Z,30.87
2019-01-29T19:15:37.199Z,25.93
2019-01-29T19:20:42.264Z,26.07
2019-01-29T19:25:47.306Z,26.90
2019-01-29T19:30:52.337Z,26.67
2019-01-29T19:35:57.690Z,28.23
2019-01-29T19:41:02.693Z,27.33
2019-01-29T19:46:07.721Z,27.07
2019-01-29T19:51:12.796Z,27.90
2019-01-29T19:56:17.818Z,32.00
2019-01-29T20:01:22.852Z,30.70
2019-01-29T20:06:27.881Z,34.07
2019-01-29T20:11:32.913Z,33.00
2019-01-29T20:16:37.932Z,32.70
2019-01-29T20:21:42.955Z,35.83
2019-01-29T20:26:48.041Z,36.30
2019-01-29T20:31:53.015Z,36.87
2019-01-29T20:36:58.036Z,35.40
2019-01-29T20:42:05.827Z,37.40
2019-01-29T20:47:10.892Z,40.53
2019-01-29T20:52:15.936Z,41.00
2019-01-29T20:57:20.954Z,40.33
2019-01-29T21:02:25.985Z,35.47
2019-01-29T21:07:31.033Z,33.00
2019-01-29T21:12:36.068Z,34.43
2019-01-29T21:17:41.094Z,33.10
2019-01-29T21:22:46.124Z,33.27
2019-01-29T21:27:51.184Z,34.10
2019-01-29T21:32:56.214Z,35.07
2019-01-29T21:38:01.250Z,33.07
2019-01-29T21:43:06.523Z,39.37
2019-01-29T21:48:11.547Z,32.97
2019-01-29T21:53:16.588Z,35.60
2019-01-29T21:58:21.625Z,34.07
2019-01-29T22:03:26.692Z,35.30
2019-01-29T22:08:31.793Z,34.43
2019-01-29T22:13:36.803Z,33.97
2019-01-29T22:18:41.831Z,36.27
2019-01-29T22:23:46.857Z,31.10
2019-01-29T22:28:51.920Z,31.17
2019-01-29T22:33:56.935Z,31.50
2019-01-29T22:39:01.969Z,30.83
2019-01-29T22:44:16.837Z,31.77
2019-01-29T22:49:22.952Z,30.87
2019-01-29T22:54:27.990Z,29.73
2019-01-29T22:59:33.679Z,28.90
2019-01-29T23:04:43.924Z,25.43
2019-01-29T23:09:49.424Z,26.83
2019-01-29T23:14:55.778Z,25.67
2019-01-29T23:20:02.750Z,24.20
2019-01-29T23:25:09.042Z,24.70
2019-01-29T23:30:18.007Z,23.63
2019-01-29T23:35:22.967Z,22.70
2019-01-29T23:40:27.977Z,22.67
2019-01-29T23:45:33.012Z,21.37
2019-01-29T23:50:38.057Z,22.13
2019-01-29T23:55:43.353Z,21.83
